Time;durP1;ratioP1;P1;durP2;ratioP2;P2;SDS_P1;SDS_P2;PMS_P1;PMS_P2;Temp;Humidity;BMP_temperature;BMP_pressure;BME280_temperature;BME280_humidity;BME280_pressure;Samples;Min_cycle;Max_cycle;Signal;HPM_P1;HPM_P2
2021/04/16 00:02:05;;;;;;;14.63;6.45;;;;;;;17.37;69.23;101080.75;4986350;28;20035;-68
2021/04/16 00:04:33;;;;;;;14.48;6.57;;;;;;;17.34;69.26;101075.41;4979159;28;20039;-68
2021/04/16 00:07:00;;;;;;;16.55;6.55;;;;;;;17.29;69.44;101062.09;4977671;28;20061;-69
2021/04/16 00:09:28;;;;;;;14.57;7.30;;;;;;;17.33;69.19;101069.19;4987531;28;20567;-68
2021/04/16 00:11:56;;;;;;;14.68;6.53;;;;;;;17.31;69.08;101065.66;4988290;28;20046;-69
2021/04/16 00:14:25;;;;;;;12.88;6.85;;;;;;;17.36;69.09;101068.28;4992040;28;20038;-70
2021/04/16 00:16:52;;;;;;;14.85;7.10;;;;;;;17.36;68.96;101061.16;4991172;28;20543;-69
2021/04/16 00:19:19;;;;;;;12.05;6.03;;;;;;;17.26;68.96;101048.81;4990037;28;20063;-68
2021/04/16 00:21:48;;;;;;;13.32;7.15;;;;;;;17.26;68.92;101051.47;4975737;28;20050;-68
2021/04/16 00:24:15;;;;;;;13.30;7.22;;;;;;;17.25;68.94;101044.34;4985129;28;20051;-68
2021/04/16 00:26:44;;;;;;;16.58;6.82;;;;;;;17.19;69.08;101044.41;4991362;28;20042;-68
2021/04/16 00:29:11;;;;;;;13.20;6.63;;;;;;;17.13;69.20;101052.47;4990672;28;20102;-68
2021/04/16 00:31:50;;;;;;;17.25;7.13;;;;;;;17.12;69.20;101059.56;4982712;28;20596;-68
2021/04/16 00:34:18;;;;;;;14.07;6.30;;;;;;;17.07;69.27;101072.03;4984444;28;20142;-68
2021/04/16 00:36:45;;;;;;;15.32;6.25;;;;;;;17.04;69.10;101074.72;4978977;28;21147;-69
2021/04/16 00:39:14;;;;;;;13.75;5.78;;;;;;;17.10;68.87;101068.47;4986512;28;20039;-68
2021/04/16 00:41:41;;;;;;;12.52;5.90;;;;;;;17.21;68.62;101081.72;4989664;28;20042;-68
2021/04/16 00:44:08;;;;;;;13.13;5.55;;;;;;;17.18;68.58;101077.31;4990736;28;20046;-69
2021/04/16 00:46:44;;;;;;;15.68;6.88;;;;;;;17.13;68.86;101079.13;4989818;28;20034;-68
2021/04/16 00:49:16;;;;;;;12.30;6.25;;;;;;;17.07;68.98;101065.81;4979253;28;20039;-69
2021/04/16 00:51:47;;;;;;;16.38;8.00;;;;;;;17.07;69.03;101065.81;4991499;28;20043;-68
2021/04/16 00:54:18;;;;;;;10.13;6.22;;;;;;;17.08;68.77;101062.25;4988576;28;22284;-68
2021/04/16 00:56:47;;;;;;;14.35;7.03;;;;;;;17.14;68.62;101065.75;4979604;28;20065;-68
2021/04/16 00:59:57;;;;;;;17.25;6.47;;;;;;;17.24;67.93;101063.94;4968439;28;20514;-68
2021/04/16 01:02:26;;;;;;;13.93;6.05;;;;;;;17.23;67.89;101069.28;4989753;28;20058;-68
2021/04/16 01:04:54;;;;;;;15.07;7.28;;;;;;;17.24;67.92;101071.94;4984836;28;20523;-68
2021/04/16 01:07:22;;;;;;;16.35;7.30;;;;;;;17.22;68.06;101079.06;4979768;28;20043;-69
2021/04/16 01:09:50;;;;;;;12.45;6.22;;;;;;;17.22;68.23;101092.41;4982197;28;20121;-68
2021/04/16 01:12:19;;;;;;;17.48;7.57;;;;;;;17.19;68.41;101079.09;4986818;28;20039;-68
2021/04/16 01:14:50;;;;;;;14.80;6.72;;;;;;;17.17;68.64;101080.88;4973284;28;20051;-68
2021/04/16 01:17:18;;;;;;;15.43;7.32;;;;;;;17.08;68.96;101070.25;4986152;28;20042;-68
2021/04/16 01:19:52;;;;;;;16.80;7.18;;;;;;;16.99;69.26;101073.00;4989346;28;20488;-68
2021/04/16 01:22:26;;;;;;;15.20;6.47;;;;;;;16.99;68.71;101059.66;4990130;28;20443;-69
2021/04/16 01:24:58;;;;;;;13.32;7.45;;;;;;;16.92;68.67;101050.78;4990038;28;20046;-68
2021/04/16 01:27:25;;;;;;;11.48;6.88;;;;;;;16.85;68.32;101057.06;4990600;28;20150;-68
2021/04/16 01:29:53;;;;;;;11.57;6.18;;;;;;;16.84;68.25;101065.06;4987208;28;20093;-68
2021/04/16 01:32:30;;;;;;;12.80;6.45;;;;;;;16.84;68.38;101065.06;4990234;28;20038;-68
2021/04/16 01:34:59;;;;;;;11.80;6.95;;;;;;;16.80;68.25;101071.31;4989472;28;20447;-68
2021/04/16 01:37:28;;;;;;;15.63;6.63;;;;;;;16.79;68.41;101074.88;4987647;28;20050;-69
2021/04/16 01:39:56;;;;;;;17.65;7.28;;;;;;;16.73;68.46;101066.00;4989876;28;20052;-69
2021/04/16 01:42:24;;;;;;;14.27;6.88;;;;;;;16.73;68.73;101071.34;4974954;28;20039;-68
2021/04/16 01:44:52;;;;;;;12.63;6.47;;;;;;;16.76;68.75;101073.09;4985602;28;20546;-67
2021/04/16 01:47:19;;;;;;;13.35;6.75;;;;;;;16.79;68.69;101080.19;4989119;28;20045;-68
2021/04/16 01:49:51;;;;;;;19.55;7.45;;;;;;;16.76;68.89;101064.19;4988062;28;20046;-68
2021/04/16 01:52:20;;;;;;;13.05;7.15;;;;;;;16.76;69.14;101072.19;4987981;28;20078;-68
2021/04/16 01:54:51;;;;;;;13.13;6.93;;;;;;;16.76;68.88;101065.09;4974723;28;20409;-68
2021/04/16 01:57:22;;;;;;;14.40;6.75;;;;;;;16.81;68.75;101073.06;4985578;28;20064;-68
2021/04/16 01:59:51;;;;;;;11.45;6.18;;;;;;;16.75;68.90;101063.31;4988765;28;20050;-68
2021/04/16 02:02:21;;;;;;;12.80;6.32;;;;;;;16.72;68.76;101074.00;4987238;28;20050;-69
2021/04/16 02:04:49;;;;;;;11.05;5.57;;;;;;;16.65;68.74;101061.59;4989589;28;20042;-68
2021/04/16 02:07:17;;;;;;;15.40;6.78;;;;;;;16.63;68.58;101056.25;4971982;28;20084;-68
2021/04/16 02:09:44;;;;;;;11.63;6.45;;;;;;;16.60;68.48;101056.28;4956392;28;20086;-68
2021/04/16 02:12:15;;;;;;;15.57;6.25;;;;;;;16.59;68.67;101057.16;4977896;28;20069;-68
2021/04/16 02:14:43;;;;;;;13.63;5.78;;;;;;;16.55;68.47;101057.16;4980060;28;20042;-68
2021/04/16 02:17:13;;;;;;;13.05;5.82;;;;;;;16.45;68.51;101063.41;4989345;28;20046;-68
2021/04/16 02:19:41;;;;;;;12.43;6.30;;;;;;;16.32;68.82;101063.47;4986768;28;20049;-68
2021/04/16 02:22:09;;;;;;;14.77;7.07;;;;;;;16.25;68.98;101059.03;4987539;28;20501;-68
2021/04/16 02:24:37;;;;;;;12.18;6.63;;;;;;;16.16;68.91;101063.50;4987511;28;20046;-68
2021/04/16 02:27:06;;;;;;;13.23;5.97;;;;;;;16.16;68.98;101056.41;4954965;28;20035;-68
2021/04/16 02:29:33;;;;;;;16.13;6.90;;;;;;;16.14;68.71;101050.22;4988655;28;20416;-68
2021/04/16 02:32:03;;;;;;;10.98;6.85;;;;;;;16.10;68.78;101061.72;4989234;28;20038;-69
2021/04/16 02:34:31;;;;;;;13.02;6.82;;;;;;;16.05;68.64;101063.53;4988839;28;20042;-68
2021/04/16 02:37:02;;;;;;;15.88;6.60;;;;;;;16.01;68.74;101066.22;4980286;28;20042;-69
2021/04/16 02:39:29;;;;;;;14.35;7.35;;;;;;;15.91;68.76;101063.56;4988059;28;20410;-68
2021/04/16 02:41:57;;;;;;;11.00;6.00;;;;;;;15.83;68.88;101068.00;4985874;28;20042;-68
2021/04/16 02:44:25;;;;;;;14.15;6.60;;;;;;;15.77;68.96;101064.44;4989774;28;20034;-69
2021/04/16 02:46:53;;;;;;;15.20;7.47;;;;;;;15.68;69.16;101076.00;4989515;28;20089;-68
2021/04/16 02:49:23;;;;;;;13.98;7.15;;;;;;;15.64;69.30;101076.88;4984110;28;20125;-68
2021/04/16 02:51:51;;;;;;;15.38;7.20;;;;;;;15.61;69.29;101071.56;4987342;28;20587;-68
2021/04/16 02:54:19;;;;;;;14.45;6.53;;;;;;;15.55;69.54;101076.91;4986954;28;20145;-68
2021/04/16 02:56:47;;;;;;;13.85;7.70;;;;;;;15.48;69.60;101075.09;4987974;28;20058;-68
2021/04/16 02:59:14;;;;;;;20.60;7.72;;;;;;;15.44;70.02;101071.50;4988370;28;20038;-68
2021/04/16 03:01:41;;;;;;;17.58;7.88;;;;;;;15.37;70.29;101071.50;4974600;28;20043;-68
2021/04/16 03:04:09;;;;;;;18.60;7.88;;;;;;;15.29;70.67;101082.16;4983206;28;20105;-68
2021/04/16 03:06:37;;;;;;;14.73;7.70;;;;;;;15.24;70.85;101086.56;4986690;28;20050;-68
2021/04/16 03:09:06;;;;;;;15.32;8.73;;;;;;;15.18;71.14;101088.31;4975402;28;20039;-69
2021/04/16 03:11:33;;;;;;;13.35;8.30;;;;;;;15.09;71.26;101089.22;4982679;28;20042;-67
2021/04/16 03:14:02;;;;;;;16.85;8.15;;;;;;;15.10;71.25;101094.50;4985674;28;20063;-68
2021/04/16 03:16:30;;;;;;;17.45;8.13;;;;;;;15.06;71.22;101099.81;4970728;28;20074;-69
2021/04/16 03:18:59;;;;;;;16.38;8.50;;;;;;;14.95;71.41;101107.78;4988713;28;20038;-68
2021/04/16 03:21:27;;;;;;;16.02;7.95;;;;;;;14.95;71.81;101097.16;4987516;28;20045;-69
2021/04/16 03:23:56;;;;;;;17.52;8.85;;;;;;;15.02;71.46;101117.56;4988535;28;20045;-68
2021/04/16 03:26:25;;;;;;;15.20;7.55;;;;;;;15.06;71.22;101123.75;4988190;28;20061;-68
2021/04/16 03:28:54;;;;;;;12.77;7.53;;;;;;;15.09;71.23;101118.47;4985610;28;20042;-68
2021/04/16 03:31:21;;;;;;;13.20;7.07;;;;;;;15.10;71.18;101113.13;4977226;28;20047;-69
2021/04/16 03:33:48;;;;;;;15.10;8.25;;;;;;;15.09;71.20;101119.34;4984195;28;20038;-68
2021/04/16 03:36:16;;;;;;;14.20;7.95;;;;;;;15.08;71.25;101106.94;4985324;28;20061;-69
2021/04/16 03:38:44;;;;;;;12.93;7.38;;;;;;;15.05;71.00;101106.91;4975445;28;20031;-67
2021/04/16 03:41:13;;;;;;;16.55;6.82;;;;;;;15.02;70.81;101098.94;4987027;28;20117;-68
2021/04/16 03:43:42;;;;;;;12.05;7.13;;;;;;;14.97;70.90;101115.75;4979905;28;20051;-68
2021/04/16 03:46:09;;;;;;;13.55;6.43;;;;;;;14.91;70.84;101121.94;4988780;28;20038;-68
2021/04/16 03:48:36;;;;;;;11.00;6.32;;;;;;;14.82;71.17;101118.38;4990630;28;20504;-68
2021/04/16 03:51:05;;;;;;;15.05;7.05;;;;;;;14.79;71.24;101118.34;4989895;28;20439;-67
2021/04/16 03:53:33;;;;;;;14.75;7.45;;;;;;;14.92;71.02;101120.16;4975248;28;20042;-68
2021/04/16 03:56:00;;;;;;;15.30;7.35;;;;;;;15.00;70.63;101121.97;4991390;28;20544;-68
2021/04/16 03:58:28;;;;;;;10.30;6.70;;;;;;;15.08;70.28;101117.56;4983163;28;20042;-68
2021/04/16 04:00:56;;;;;;;15.05;7.47;;;;;;;15.15;69.95;101124.69;4981310;28;20046;-69
2021/04/16 04:03:23;;;;;;;14.93;7.15;;;;;;;15.23;69.69;101131.81;4989166;28;20047;-67
2021/04/16 04:05:50;;;;;;;11.88;7.25;;;;;;;15.33;69.62;101130.91;4990129;28;20042;-67
2021/04/16 04:08:18;;;;;;;10.25;6.70;;;;;;;15.39;69.47;101139.81;4991513;28;20070;-68
2021/04/16 04:10:45;;;;;;;14.73;8.23;;;;;;;15.34;69.78;101138.91;4991808;28;20041;-68
2021/04/16 04:13:14;;;;;;;14.45;7.40;;;;;;;15.24;70.40;101146.84;4972458;28;20048;-68
2021/04/16 04:15:42;;;;;;;14.27;8.70;;;;;;;15.32;70.69;101142.44;4971325;28;20038;-68
2021/04/16 04:18:10;;;;;;;12.60;7.45;;;;;;;15.47;70.42;101153.13;4972923;28;20464;-68
2021/04/16 04:20:41;;;;;;;14.30;7.13;;;;;;;15.56;70.48;101149.63;4985896;28;20097;-68
2021/04/16 04:23:09;;;;;;;22.95;7.88;;;;;;;15.65;70.30;101155.84;4988315;28;20034;-68
2021/04/16 04:25:37;;;;;;;19.05;7.45;;;;;;;15.73;70.32;101167.38;4991541;28;20050;-68
2021/04/16 04:28:06;;;;;;;16.80;7.32;;;;;;;15.86;70.30;101160.31;4990786;28;20065;-68
2021/04/16 04:30:36;;;;;;;13.20;7.57;;;;;;;15.97;70.05;101162.94;4991617;28;20046;-68
2021/04/16 04:33:06;;;;;;;13.55;6.75;;;;;;;16.09;70.23;101170.94;4989657;28;20488;-68
2021/04/16 04:35:35;;;;;;;13.48;6.70;;;;;;;16.17;70.06;101178.03;4989537;28;20046;-68
2021/04/16 04:38:03;;;;;;;12.95;6.63;;;;;;;16.33;69.54;101168.28;4978400;28;20046;-68
2021/04/16 04:40:30;;;;;;;18.05;6.75;;;;;;;16.41;69.41;101166.47;4984392;28;20030;-68
2021/04/16 04:42:57;;;;;;;15.65;7.18;;;;;;;16.44;69.29;101166.47;4988605;28;20050;-68
2021/04/16 04:45:25;;;;;;;23.83;11.13;;;;;;;16.49;69.11;101162.00;4970525;28;20042;-68
2021/04/16 04:47:53;;;;;;;15.32;8.00;;;;;;;16.58;69.27;101170.00;4990745;28;20069;-68
2021/04/16 04:50:25;;;;;;;17.10;8.40;;;;;;;16.62;68.84;101158.44;4987426;28;20053;-68
2021/04/16 04:52:54;;;;;;;18.73;9.52;;;;;;;16.72;68.75;101160.22;4989076;28;20070;-68
2021/04/16 04:55:25;;;;;;;17.77;9.65;;;;;;;16.88;68.85;101154.81;4990321;28;20066;-68
2021/04/16 04:57:52;;;;;;;19.80;10.80;;;;;;;17.04;68.38;101162.75;4990604;28;20039;-68
2021/04/16 05:00:20;;;;;;;28.05;11.20;;;;;;;17.28;68.20;101160.84;4988862;28;20069;-69
2021/04/16 05:02:48;;;;;;;14.63;8.57;;;;;;;17.48;67.91;101164.28;4989069;28;20050;-68
2021/04/16 05:05:16;;;;;;;17.15;9.27;;;;;;;17.70;67.70;101160.63;4984322;28;20045;-68
2021/04/16 05:07:45;;;;;;;18.55;9.48;;;;;;;17.81;67.59;101168.53;4987057;28;20046;-68
2021/04/16 05:10:13;;;;;;;18.42;9.77;;;;;;;17.95;67.47;101177.34;4989922;28;20042;-70
2021/04/16 05:12:41;;;;;;;17.58;11.15;;;;;;;18.17;67.34;101168.25;4988349;28;20496;-69
2021/04/16 05:15:10;;;;;;;22.95;13.57;;;;;;;18.35;66.59;101177.88;4977433;28;20034;-69
2021/04/16 05:17:38;;;;;;;27.10;14.77;;;;;;;18.53;66.61;101172.34;4977301;28;20129;-69
2021/04/16 05:20:07;;;;;;;24.63;14.52;;;;;;;18.79;66.04;101169.41;4983015;28;20042;-69
2021/04/16 05:22:34;;;;;;;25.83;15.25;;;;;;;19.00;65.51;101176.31;4987979;28;20594;-69
2021/04/16 05:25:04;;;;;;;24.27;16.25;;;;;;;19.19;65.10;101177.84;4987203;28;20073;-69
2021/04/16 05:27:31;;;;;;;25.13;15.50;;;;;;;19.33;64.58;101175.88;4990308;28;20108;-68
2021/04/16 05:29:59;;;;;;;22.58;13.52;;;;;;;19.44;64.08;101176.59;4985904;28;20416;-69
2021/04/16 05:32:26;;;;;;;18.52;12.30;;;;;;;19.56;63.69;101178.25;4988869;28;20053;-68
2021/04/16 05:34:53;;;;;;;22.30;11.85;;;;;;;19.72;63.80;101192.31;4966774;28;20138;-68
2021/04/16 05:37:21;;;;;;;16.83;10.07;;;;;;;19.97;63.95;101206.22;4983722;28;20040;-69
2021/04/16 05:39:50;;;;;;;15.50;9.18;;;;;;;20.21;63.13;101203.16;4979493;28;20047;-69
2021/04/16 05:42:19;;;;;;;18.80;8.35;;;;;;;20.37;62.82;101198.41;4977594;28;20046;-69
2021/04/16 05:44:48;;;;;;;18.73;9.00;;;;;;;20.49;62.80;101200.88;4980603;28;20062;-69
2021/04/16 05:47:16;;;;;;;14.05;8.10;;;;;;;20.68;61.99;101202.31;4973781;28;20043;-69
2021/04/16 05:49:44;;;;;;;17.55;8.10;;;;;;;20.85;61.70;101202.88;4977297;28;20047;-69
2021/04/16 05:52:12;;;;;;;13.55;7.93;;;;;;;20.97;60.82;101194.59;4981310;28;20042;-69
2021/04/16 05:54:39;;;;;;;18.55;7.75;;;;;;;21.14;60.69;101190.66;4973855;28;20035;-70
2021/04/16 05:57:07;;;;;;;18.90;8.40;;;;;;;21.36;60.01;101189.31;4988508;28;20035;-69
2021/04/16 05:59:36;;;;;;;14.77;7.03;;;;;;;21.59;59.65;101186.13;4989673;28;20053;-69
2021/04/16 06:02:05;;;;;;;8.07;5.47;;;;;;;21.68;59.33;101186.78;4984976;28;20072;-69
2021/04/16 06:04:32;;;;;;;11.18;5.50;;;;;;;21.85;58.39;101184.59;4982133;28;20049;-70
2021/04/16 06:07:00;;;;;;;11.52;5.93;;;;;;;22.04;57.91;101185.06;4971696;28;20072;-70
2021/04/16 06:09:27;;;;;;;14.02;5.90;;;;;;;22.23;57.44;101190.88;4982459;28;20092;-70
2021/04/16 06:11:55;;;;;;;9.98;5.13;;;;;;;22.42;56.87;101183.19;4977410;28;20053;-70
2021/04/16 06:14:22;;;;;;;12.15;5.47;;;;;;;22.45;55.71;101167.84;4981597;28;20042;-69
2021/04/16 06:16:52;;;;;;;10.85;4.93;;;;;;;22.65;54.42;101172.69;4984128;28;20035;-71
2021/04/16 06:19:21;;;;;;;20.80;5.72;;;;;;;22.69;54.16;101162.72;4988524;28;20053;-69
2021/04/16 06:21:48;;;;;;;11.02;6.22;;;;;;;22.83;54.17;101157.88;4988872;28;20034;-70
2021/04/16 06:24:15;;;;;;;15.95;6.30;;;;;;;23.05;53.29;101159.88;4978377;28;20045;-70
2021/04/16 06:26:43;;;;;;;12.02;6.50;;;;;;;23.22;53.01;101155.81;4979691;28;20125;-69
2021/04/16 06:29:11;;;;;;;12.82;6.57;;;;;;;23.22;52.43;101155.81;4988716;28;20042;-70
2021/04/16 06:31:38;;;;;;;16.33;6.38;;;;;;;23.31;52.46;101163.59;4979566;28;20050;-70
2021/04/16 06:34:07;;;;;;;13.77;6.43;;;;;;;23.55;52.15;101165.59;4985924;28;20034;-70
2021/04/16 06:36:34;;;;;;;15.07;7.05;;;;;;;23.60;51.56;101171.72;4988959;28;20096;-69
2021/04/16 06:39:01;;;;;;;14.35;7.10;;;;;;;23.73;51.29;101166.81;4976683;28;20038;-69
2021/04/16 06:41:31;;;;;;;11.52;7.38;;;;;;;23.89;51.01;101159.13;4982214;28;20054;-70
2021/04/16 06:44:04;;;;;;;11.65;6.68;;;;;;;23.89;50.96;101156.44;4989350;28;20603;-70
2021/04/16 06:46:36;;;;;;;10.03;5.57;;;;;;;24.02;50.68;101160.47;4971794;28;20038;-70
2021/04/16 06:49:08;;;;;;;14.05;6.63;;;;;;;24.06;50.70;101162.13;4976829;28;20415;-70
2021/04/16 06:51:43;;;;;;;10.75;7.18;;;;;;;24.21;50.69;101164.34;4983949;28;20049;-70
2021/04/16 06:54:15;;;;;;;11.30;7.20;;;;;;;24.39;50.10;101163.72;4987895;28;20071;-69
2021/04/16 06:56:46;;;;;;;11.80;5.90;;;;;;;24.41;49.81;101169.94;4988472;28;20271;-70
2021/04/16 06:59:20;;;;;;;12.65;6.90;;;;;;;24.52;49.36;101167.75;4984551;28;20058;-69
2021/04/16 07:01:53;;;;;;;12.95;6.75;;;;;;;24.41;49.62;101182.56;4986069;28;20058;-69
2021/04/16 07:04:44;;;;;;;14.43;5.68;;;;;;;24.21;49.68;101180.53;4982647;28;20052;-69
2021/04/16 07:07:20;;;;;;;9.55;5.78;;;;;;;24.24;49.64;101177.72;4973719;28;20042;-70
2021/04/16 07:09:51;;;;;;;14.77;6.47;;;;;;;24.13;49.62;101185.28;4988738;28;20054;-70
2021/04/16 07:12:20;;;;;;;13.48;5.70;;;;;;;23.72;50.36;101189.31;4976054;28;20034;-69
2021/04/16 07:14:50;;;;;;;12.45;6.20;;;;;;;23.80;50.53;101190.84;4988717;28;20046;-69
2021/04/16 07:17:20;;;;;;;12.55;5.53;;;;;;;24.01;50.27;101188.38;4972051;28;20038;-69
2021/04/16 07:19:49;;;;;;;12.15;5.32;;;;;;;24.08;50.19;101187.25;4982714;28;20046;-69
2021/04/16 07:22:21;;;;;;;10.00;5.35;;;;;;;24.07;50.13;101191.75;4987681;28;20061;-70
2021/04/16 07:25:40;;;;;;;12.70;5.15;;;;;;;24.18;49.88;101207.59;4985089;28;20046;-70
2021/04/16 07:28:13;;;;;;;14.02;5.30;;;;;;;24.20;49.90;101205.75;4985036;28;20085;-69
2021/04/16 07:30:45;;;;;;;13.57;5.85;;;;;;;24.16;49.53;101204.03;4988574;28;20038;-70
2021/04/16 07:33:38;;;;;;;13.75;5.38;;;;;;;24.01;49.74;101201.88;4982804;28;20096;-70
2021/04/16 07:36:22;;;;;;;10.98;5.53;;;;;;;23.87;49.98;101218.50;4986650;28;20046;-69
2021/04/16 07:39:02;;;;;;;14.95;5.70;;;;;;;23.78;50.20;101216.09;4973275;28;20043;-70
2021/04/16 07:41:32;;;;;;;10.55;4.90;;;;;;;23.97;50.14;101222.66;4992309;28;20121;-69
2021/04/16 07:44:01;;;;;;;13.68;5.15;;;;;;;24.11;49.93;101219.50;4990539;28;20043;-69
2021/04/16 07:46:41;;;;;;;12.65;5.35;;;;;;;24.40;49.49;101211.38;4975020;28;20039;-69
2021/04/16 07:49:37;;;;;;;13.65;5.13;;;;;;;24.43;49.21;101213.94;4989488;28;20050;-69
2021/04/16 07:52:23;;;;;;;13.18;4.75;;;;;;;24.32;49.05;101209.84;4987588;28;20042;-70
2021/04/16 07:55:16;;;;;;;13.23;4.80;;;;;;;24.41;49.03;101205.03;4991349;28;20411;-70
2021/04/16 07:57:58;;;;;;;11.45;4.47;;;;;;;24.41;49.03;101206.84;4991395;28;20093;-69
2021/04/16 08:00:28;;;;;;;10.85;5.13;;;;;;;24.39;49.19;101206.91;4991347;28;20499;-70
2021/04/16 08:03:06;;;;;;;10.88;4.65;;;;;;;24.58;48.97;101210.72;4988174;28;20496;-69
2021/04/16 08:05:36;;;;;;;14.10;5.43;;;;;;;24.66;48.63;101210.44;4991965;28;20046;-69
2021/04/16 08:08:14;;;;;;;11.10;4.50;;;;;;;24.91;48.30;101214.06;4986227;28;20046;-69
2021/04/16 08:10:43;;;;;;;9.95;4.95;;;;;;;24.92;48.25;101217.66;4980884;28;20035;-70
2021/04/16 08:13:13;;;;;;;10.27;4.85;;;;;;;24.94;48.21;101204.97;4989868;28;20581;-69
2021/04/16 08:15:41;;;;;;;12.68;5.07;;;;;;;24.74;48.64;101191.28;4986602;28;20053;-69
2021/04/16 08:18:12;;;;;;;10.35;4.93;;;;;;;24.89;48.31;101194.31;4976375;28;20061;-69
2021/04/16 08:20:51;;;;;;;14.45;4.70;;;;;;;25.20;47.83;101198.59;4975650;28;20042;-69
2021/04/16 08:23:20;;;;;;;10.23;4.35;;;;;;;25.37;47.87;101186.19;4976908;28;20042;-69
2021/04/16 08:25:52;;;;;;;15.57;4.65;;;;;;;25.81;47.34;101183.56;4987803;28;20038;-70
2021/04/16 08:28:24;;;;;;;11.80;4.68;;;;;;;25.89;47.10;101177.84;4979915;28;20539;-70
2021/04/16 08:30:58;;;;;;;12.75;5.38;;;;;;;25.87;46.84;101183.31;4969993;28;20042;-70
2021/04/16 08:33:34;;;;;;;10.40;5.25;;;;;;;25.96;46.83;101176.66;4975329;28;20047;-70
2021/04/16 08:36:07;;;;;;;13.18;4.85;;;;;;;26.11;46.50;101171.50;4984012;28;20061;-69
2021/04/16 08:38:44;;;;;;;10.00;4.88;;;;;;;26.32;46.47;101168.88;4977154;28;20413;-69
2021/04/16 08:41:13;;;;;;;10.43;5.25;;;;;;;26.56;45.86;101165.97;4979214;28;20535;-70
2021/04/16 08:43:43;;;;;;;10.98;5.03;;;;;;;26.55;45.51;101169.59;4978481;28;20066;-68
2021/04/16 08:46:22;;;;;;;12.45;5.90;;;;;;;26.46;45.24;101161.88;4983116;28;20039;-68
2021/04/16 08:48:54;;;;;;;11.63;5.40;;;;;;;26.67;45.38;101161.88;4983811;28;20435;-70
2021/04/16 08:51:27;;;;;;;14.38;6.72;;;;;;;26.82;44.55;101163.91;4983332;28;20043;-70
2021/04/16 08:54:04;;;;;;;13.88;7.22;;;;;;;26.71;43.95;101160.81;4979952;28;20039;-70
2021/04/16 08:56:40;;;;;;;11.68;5.72;;;;;;;26.83;44.09;101165.66;4978448;28;20043;-69
2021/04/16 08:59:14;;;;;;;15.27;5.68;;;;;;;27.13;44.18;101158.88;4987491;28;20046;-69
2021/04/16 09:01:50;;;;;;;9.38;4.97;;;;;;;27.28;44.04;101154.56;4988030;28;20101;-69
2021/04/16 09:04:25;;;;;;;11.65;5.00;;;;;;;27.15;43.81;101158.81;4990541;28;20062;-70
2021/04/16 09:06:57;;;;;;;13.23;6.07;;;;;;;27.03;44.40;101152.13;4991044;28;20038;-69
2021/04/16 09:09:43;;;;;;;13.45;6.05;;;;;;;27.34;44.15;101154.25;4991168;28;20431;-70
2021/04/16 09:12:11;;;;;;;11.70;5.65;;;;;;;27.47;44.02;101154.56;4986631;28;20428;-70
2021/04/16 09:14:57;;;;;;;13.90;5.55;;;;;;;27.30;43.41;101140.00;4987183;28;20400;-70
2021/04/16 09:17:56;;;;;;;9.93;4.95;;;;;;;27.45;43.28;101148.31;4977650;28;20054;-70
2021/04/16 09:20:25;;;;;;;11.52;4.70;;;;;;;27.57;43.38;101135.06;4980083;28;20515;-70
2021/04/16 09:22:54;;;;;;;15.43;6.47;;;;;;;27.79;42.98;101142.16;4989089;28;20706;-70
2021/04/16 09:25:46;;;;;;;13.13;6.35;;;;;;;27.80;42.83;101133.94;4978448;28;20488;-70
2021/04/16 09:28:55;;;;;;;12.18;5.93;;;;;;;27.95;43.00;101144.03;4982780;28;20125;-70
2021/04/16 09:31:50;;;;;;;10.63;6.13;;;;;;;27.83;42.72;101133.78;4987120;28;20038;-70
2021/04/16 09:34:22;;;;;;;14.80;6.97;;;;;;;27.48;43.22;101127.38;4979838;28;20089;-70
2021/04/16 09:36:53;;;;;;;14.85;5.68;;;;;;;27.63;42.82;101134.78;4989991;28;20519;-71
2021/04/16 09:39:34;;;;;;;13.55;6.43;;;;;;;27.88;42.32;101139.00;4986220;28;20034;-71
2021/04/16 09:42:34;;;;;;;14.98;5.50;;;;;;;28.13;42.10;101134.06;4972543;28;20035;-70
2021/04/16 09:45:06;;;;;;;12.48;6.05;;;;;;;27.95;42.03;101138.63;4986106;28;20069;-70
2021/04/16 09:47:48;;;;;;;11.38;5.85;;;;;;;27.84;42.40;101143.69;4989473;28;20046;-70
2021/04/16 09:50:42;;;;;;;13.75;6.07;;;;;;;27.93;42.11;101151.38;4987756;28;20496;-70
2021/04/16 09:53:14;;;;;;;14.40;5.90;;;;;;;28.02;42.13;101159.06;4977601;28;20048;-70
2021/04/16 09:56:10;;;;;;;11.52;4.68;;;;;;;27.74;42.33;101151.41;4981575;28;20074;-70
2021/04/16 09:59:12;;;;;;;14.30;4.68;;;;;;;27.86;42.33;101151.75;4973561;28;20054;-71
2021/04/16 10:02:22;;;;;;;11.45;5.35;;;;;;;28.00;42.24;101154.66;4973020;28;20109;-71
2021/04/16 10:05:01;;;;;;;10.18;4.90;;;;;;;28.07;41.65;101150.69;4970911;28;20046;-71
2021/04/16 10:07:37;;;;;;;11.23;5.15;;;;;;;28.26;41.46;101151.53;4989708;28;20034;-70
2021/04/16 10:10:12;;;;;;;11.20;5.35;;;;;;;28.31;41.36;101154.00;4976195;28;20034;-72
2021/04/16 10:12:41;;;;;;;12.15;5.90;;;;;;;28.45;41.01;101155.06;4986726;28;20093;-71
2021/04/16 10:15:22;;;;;;;12.15;5.47;;;;;;;28.53;40.64;101150.09;4983383;28;20038;-71
2021/04/16 10:17:58;;;;;;;11.93;5.38;;;;;;;28.14;40.88;101150.34;4973599;28;20077;-71
2021/04/16 10:20:28;;;;;;;13.65;5.68;;;;;;;27.30;41.99;101144.53;4982826;28;20058;-70
2021/04/16 10:23:01;;;;;;;11.88;5.32;;;;;;;27.03;42.63;101159.38;4989704;28;20042;-71
2021/04/16 12:39:37;;;;;;;9.80;5.20;;;;;;;28.67;40.55;101007.16;4985721;28;20562;-69
2021/04/16 12:42:24;;;;;;;15.05;6.13;;;;;;;28.53;41.07;101006.09;4985519;28;20049;-69
2021/04/16 12:45:12;;;;;;;11.15;4.82;;;;;;;28.50;41.09;101014.41;4988536;28;20447;-70
2021/04/16 12:48:01;;;;;;;10.95;5.32;;;;;;;28.86;40.37;101014.25;4978929;28;20050;-69
2021/04/16 12:50:33;;;;;;;12.18;5.25;;;;;;;28.74;40.28;101003.16;4983587;28;20046;-69
2021/04/16 12:53:01;;;;;;;10.65;4.65;;;;;;;28.69;40.45;100989.78;4980593;28;20492;-69
2021/04/16 12:55:28;;;;;;;10.85;4.72;;;;;;;28.57;40.59;100995.03;4976439;28;20061;-69
2021/04/16 12:57:59;;;;;;;11.07;5.10;;;;;;;28.61;40.63;100992.09;4977692;28;20444;-69
2021/04/16 13:00:29;;;;;;;9.63;4.97;;;;;;;29.01;39.70;100990.75;4978839;28;20049;-69
2021/04/16 13:03:00;;;;;;;10.65;4.75;;;;;;;28.88;39.74;100981.53;4959217;28;20054;-70
2021/04/16 13:05:29;;;;;;;10.20;4.22;;;;;;;28.89;39.63;100985.97;4976297;28;20046;-69
2021/04/16 13:07:57;;;;;;;10.82;5.00;;;;;;;28.92;39.54;100983.09;4978683;28;20057;-68
2021/04/16 13:10:25;;;;;;;10.70;4.90;;;;;;;29.16;39.27;100983.53;4981179;28;20034;-69
2021/04/16 13:12:53;;;;;;;12.77;5.03;;;;;;;29.15;39.16;100984.47;4976530;28;20587;-69
2021/04/16 13:15:21;;;;;;;8.82;4.05;;;;;;;29.35;39.13;100977.91;4977832;28;20039;-69
2021/04/16 13:17:53;;;;;;;9.65;4.82;;;;;;;29.31;39.22;100971.75;4979192;28;20039;-69
2021/04/16 13:20:24;;;;;;;9.73;4.47;;;;;;;29.12;39.18;100971.97;4978534;28;20045;-69
2021/04/16 13:22:55;;;;;;;9.30;4.70;;;;;;;28.74;39.54;100975.97;4975522;28;20137;-69
2021/04/16 13:25:24;;;;;;;13.30;5.03;;;;;;;28.63;39.80;100965.69;4976981;28;20046;-69
2021/04/16 13:27:54;;;;;;;10.57;4.53;;;;;;;28.61;39.77;100966.75;4979220;28;20047;-68
2021/04/16 13:30:24;;;;;;;8.95;4.22;;;;;;;28.65;39.44;100962.88;4973444;28;20039;-69
2021/04/16 13:32:55;;;;;;;8.95;4.57;;;;;;;28.57;39.93;100959.72;4982104;28;20617;-69
2021/04/16 13:35:28;;;;;;;10.18;4.55;;;;;;;28.71;39.72;100957.09;4977528;28;20035;-70
2021/04/16 13:37:57;;;;;;;11.40;4.93;;;;;;;29.06;39.13;100960.56;4980891;28;20046;-70
2021/04/16 13:40:25;;;;;;;8.95;4.50;;;;;;;29.46;38.45;100964.56;4977580;28;20042;-70
2021/04/16 13:42:52;;;;;;;9.23;4.55;;;;;;;29.74;37.93;100967.38;4978949;28;20452;-70
2021/04/16 13:45:19;;;;;;;11.23;4.85;;;;;;;29.80;37.81;100975.16;4977257;28;20046;-70
2021/04/16 13:47:48;;;;;;;14.18;5.55;;;;;;;29.65;38.03;100966.09;4982137;28;20563;-70
2021/04/16 13:50:18;;;;;;;9.73;4.63;;;;;;;29.41;38.36;100958.50;4980075;28;20093;-70
2021/04/16 13:52:45;;;;;;;8.65;4.78;;;;;;;29.25;38.50;100953.97;4984370;28;20110;-70